sensor_id;sensor_type;location;lat;lon;timestamp;P1;durP1;ratioP1;P2;durP2;ratioP2
74974;SDS011;68459;50.836;19.138;2023-07-13T00:02:54;9.07;;;5.78;;
74974;SDS011;68459;50.836;19.138;2023-07-13T00:05:59;7.82;;;5.68;;
74974;SDS011;68459;50.836;19.138;2023-07-13T00:09:05;10.85;;;5.60;;
74974;SDS011;68459;50.836;19.138;2023-07-13T00:12:22;8.30;;;5.75;;
74974;SDS011;68459;50.836;19.138;2023-07-13T00:15:29;10.63;;;5.77;;
74974;SDS011;68459;50.836;19.138;2023-07-13T00:18:33;8.82;;;5.85;;
74974;SDS011;68459;50.836;19.138;2023-07-13T00:21:37;12.07;;;6.90;;
74974;SDS011;68459;50.836;19.138;2023-07-13T00:24:43;7.95;;;5.80;;
74974;SDS011;68459;50.836;19.138;2023-07-13T00:27:47;9.00;;;6.65;;
74974;SDS011;68459;50.836;19.138;2023-07-13T00:30:52;8.37;;;6.53;;
74974;SDS011;68459;50.836;19.138;2023-07-13T00:33:56;8.27;;;6.30;;
74974;SDS011;68459;50.836;19.138;2023-07-13T00:37:02;8.27;;;6.00;;
74974;SDS011;68459;50.836;19.138;2023-07-13T00:40:11;12.40;;;6.65;;
74974;SDS011;68459;50.836;19.138;2023-07-13T00:43:17;11.43;;;6.13;;
74974;SDS011;68459;50.836;19.138;2023-07-13T00:46:25;9.80;;;6.07;;
74974;SDS011;68459;50.836;19.138;2023-07-13T00:49:32;7.95;;;6.03;;
74974;SDS011;68459;50.836;19.138;2023-07-13T00:52:40;9.68;;;5.95;;
74974;SDS011;68459;50.836;19.138;2023-07-13T00:55:49;7.72;;;5.55;;
74974;SDS011;68459;50.836;19.138;2023-07-13T00:58:55;10.50;;;5.70;;
74974;SDS011;68459;50.836;19.138;2023-07-13T01:02:00;7.70;;;5.90;;
74974;SDS011;68459;50.836;19.138;2023-07-13T01:05:08;7.93;;;5.57;;
74974;SDS011;68459;50.836;19.138;2023-07-13T01:08:13;9.50;;;6.57;;
74974;SDS011;68459;50.836;19.138;2023-07-13T01:11:22;8.43;;;5.53;;
74974;SDS011;68459;50.836;19.138;2023-07-13T01:14:26;7.93;;;5.50;;
74974;SDS011;68459;50.836;19.138;2023-07-13T01:17:30;9.77;;;6.10;;
74974;SDS011;68459;50.836;19.138;2023-07-13T01:20:37;8.35;;;5.72;;
74974;SDS011;68459;50.836;19.138;2023-07-13T01:23:43;8.38;;;5.60;;
74974;SDS011;68459;50.836;19.138;2023-07-13T01:26:46;8.32;;;5.38;;
74974;SDS011;68459;50.836;19.138;2023-07-13T01:29:51;9.25;;;5.22;;
74974;SDS011;68459;50.836;19.138;2023-07-13T01:33:04;7.23;;;5.70;;
74974;SDS011;68459;50.836;19.138;2023-07-13T01:36:09;13.65;;;5.55;;
74974;SDS011;68459;50.836;19.138;2023-07-13T01:39:17;7.38;;;5.00;;
74974;SDS011;68459;50.836;19.138;2023-07-13T01:42:21;9.30;;;5.65;;
74974;SDS011;68459;50.836;19.138;2023-07-13T01:45:43;6.95;;;4.80;;
74974;SDS011;68459;50.836;19.138;2023-07-13T01:48:47;7.00;;;4.70;;
74974;SDS011;68459;50.836;19.138;2023-07-13T01:51:51;9.32;;;5.93;;
74974;SDS011;68459;50.836;19.138;2023-07-13T01:54:56;7.32;;;4.90;;
74974;SDS011;68459;50.836;19.138;2023-07-13T01:58:00;6.85;;;4.63;;
74974;SDS011;68459;50.836;19.138;2023-07-13T02:01:04;7.50;;;4.82;;
74974;SDS011;68459;50.836;19.138;2023-07-13T02:04:08;7.20;;;4.63;;
74974;SDS011;68459;50.836;19.138;2023-07-13T02:07:12;7.93;;;4.80;;
74974;SDS011;68459;50.836;19.138;2023-07-13T02:10:18;8.23;;;4.90;;
74974;SDS011;68459;50.836;19.138;2023-07-13T02:13:22;8.15;;;5.00;;
74974;SDS011;68459;50.836;19.138;2023-07-13T02:16:26;6.72;;;4.65;;
74974;SDS011;68459;50.836;19.138;2023-07-13T02:19:30;8.63;;;4.70;;
74974;SDS011;68459;50.836;19.138;2023-07-13T02:22:34;6.32;;;4.57;;
74974;SDS011;68459;50.836;19.138;2023-07-13T02:25:39;5.97;;;4.70;;
74974;SDS011;68459;50.836;19.138;2023-07-13T02:28:43;7.93;;;5.03;;
74974;SDS011;68459;50.836;19.138;2023-07-13T02:31:47;8.48;;;5.10;;
74974;SDS011;68459;50.836;19.138;2023-07-13T02:34:51;7.07;;;4.37;;
74974;SDS011;68459;50.836;19.138;2023-07-13T02:37:56;8.45;;;4.68;;
74974;SDS011;68459;50.836;19.138;2023-07-13T02:41:02;5.88;;;4.43;;
74974;SDS011;68459;50.836;19.138;2023-07-13T02:44:06;6.78;;;4.55;;
74974;SDS011;68459;50.836;19.138;2023-07-13T02:47:10;7.38;;;4.68;;
74974;SDS011;68459;50.836;19.138;2023-07-13T02:50:15;8.63;;;3.73;;
74974;SDS011;68459;50.836;19.138;2023-07-13T02:53:18;6.00;;;3.63;;
74974;SDS011;68459;50.836;19.138;2023-07-13T02:56:24;8.05;;;4.65;;
74974;SDS011;68459;50.836;19.138;2023-07-13T02:59:30;6.20;;;4.05;;
74974;SDS011;68459;50.836;19.138;2023-07-13T03:02:34;6.25;;;4.30;;
74974;SDS011;68459;50.836;19.138;2023-07-13T03:05:40;5.93;;;3.87;;
74974;SDS011;68459;50.836;19.138;2023-07-13T03:08:45;7.88;;;4.05;;
74974;SDS011;68459;50.836;19.138;2023-07-13T03:11:53;6.25;;;4.03;;
74974;SDS011;68459;50.836;19.138;2023-07-13T03:15:04;6.13;;;4.03;;
74974;SDS011;68459;50.836;19.138;2023-07-13T03:18:13;6.93;;;3.90;;
74974;SDS011;68459;50.836;19.138;2023-07-13T03:21:17;6.97;;;4.00;;
74974;SDS011;68459;50.836;19.138;2023-07-13T03:24:21;5.18;;;3.53;;
74974;SDS011;68459;50.836;19.138;2023-07-13T03:27:30;6.43;;;3.60;;
74974;SDS011;68459;50.836;19.138;2023-07-13T03:30:34;7.45;;;3.53;;
74974;SDS011;68459;50.836;19.138;2023-07-13T03:33:39;5.10;;;3.40;;
74974;SDS011;68459;50.836;19.138;2023-07-13T03:36:43;7.27;;;3.80;;
74974;SDS011;68459;50.836;19.138;2023-07-13T03:39:48;5.07;;;3.40;;
74974;SDS011;68459;50.836;19.138;2023-07-13T03:42:55;5.43;;;3.30;;
74974;SDS011;68459;50.836;19.138;2023-07-13T03:45:59;5.95;;;3.50;;
74974;SDS011;68459;50.836;19.138;2023-07-13T03:49:04;4.82;;;3.15;;
74974;SDS011;68459;50.836;19.138;2023-07-13T03:52:08;4.67;;;2.80;;
74974;SDS011;68459;50.836;19.138;2023-07-13T03:55:12;7.35;;;3.30;;
74974;SDS011;68459;50.836;19.138;2023-07-13T03:58:25;6.07;;;3.65;;
74974;SDS011;68459;50.836;19.138;2023-07-13T04:01:37;6.75;;;3.58;;
74974;SDS011;68459;50.836;19.138;2023-07-13T04:04:42;5.93;;;3.83;;
74974;SDS011;68459;50.836;19.138;2023-07-13T04:07:46;6.87;;;3.80;;
74974;SDS011;68459;50.836;19.138;2023-07-13T04:10:52;5.53;;;3.17;;
74974;SDS011;68459;50.836;19.138;2023-07-13T04:13:58;6.33;;;3.17;;
74974;SDS011;68459;50.836;19.138;2023-07-13T04:17:03;5.20;;;2.83;;
74974;SDS011;68459;50.836;19.138;2023-07-13T04:20:08;4.25;;;2.50;;
74974;SDS011;68459;50.836;19.138;2023-07-13T04:23:12;4.10;;;2.60;;
74974;SDS011;68459;50.836;19.138;2023-07-13T04:26:16;8.15;;;2.33;;
74974;SDS011;68459;50.836;19.138;2023-07-13T04:29:24;4.70;;;2.53;;
74974;SDS011;68459;50.836;19.138;2023-07-13T04:32:28;3.78;;;2.70;;
74974;SDS011;68459;50.836;19.138;2023-07-13T04:35:32;4.03;;;2.28;;
74974;SDS011;68459;50.836;19.138;2023-07-13T04:38:36;3.87;;;2.60;;
74974;SDS011;68459;50.836;19.138;2023-07-13T04:41:40;5.07;;;3.03;;
74974;SDS011;68459;50.836;19.138;2023-07-13T04:44:48;4.60;;;3.15;;
74974;SDS011;68459;50.836;19.138;2023-07-13T04:47:52;5.70;;;3.00;;
74974;SDS011;68459;50.836;19.138;2023-07-13T04:50:57;5.43;;;2.97;;
74974;SDS011;68459;50.836;19.138;2023-07-13T04:54:01;5.53;;;2.90;;
74974;SDS011;68459;50.836;19.138;2023-07-13T04:57:06;5.47;;;2.92;;
74974;SDS011;68459;50.836;19.138;2023-07-13T05:00:12;6.15;;;3.25;;
74974;SDS011;68459;50.836;19.138;2023-07-13T05:03:18;10.68;;;3.42;;
74974;SDS011;68459;50.836;19.138;2023-07-13T05:06:22;5.80;;;3.50;;
74974;SDS011;68459;50.836;19.138;2023-07-13T05:09:25;8.70;;;3.60;;
74974;SDS011;68459;50.836;19.138;2023-07-13T05:12:29;5.80;;;3.50;;
74974;SDS011;68459;50.836;19.138;2023-07-13T05:15:35;6.45;;;3.85;;
74974;SDS011;68459;50.836;19.138;2023-07-13T05:18:39;7.10;;;3.50;;
74974;SDS011;68459;50.836;19.138;2023-07-13T05:21:44;6.97;;;3.97;;
74974;SDS011;68459;50.836;19.138;2023-07-13T05:24:48;6.57;;;3.87;;
74974;SDS011;68459;50.836;19.138;2023-07-13T05:27:51;7.43;;;3.92;;
74974;SDS011;68459;50.836;19.138;2023-07-13T05:30:57;6.38;;;4.53;;
74974;SDS011;68459;50.836;19.138;2023-07-13T05:34:01;7.75;;;4.25;;
74974;SDS011;68459;50.836;19.138;2023-07-13T05:37:05;6.60;;;3.78;;
74974;SDS011;68459;50.836;19.138;2023-07-13T05:40:10;6.27;;;3.97;;
74974;SDS011;68459;50.836;19.138;2023-07-13T05:43:15;5.85;;;3.72;;
74974;SDS011;68459;50.836;19.138;2023-07-13T05:46:20;6.75;;;3.60;;
74974;SDS011;68459;50.836;19.138;2023-07-13T05:49:24;5.63;;;3.58;;
74974;SDS011;68459;50.836;19.138;2023-07-13T05:52:28;6.82;;;4.00;;
74974;SDS011;68459;50.836;19.138;2023-07-13T05:55:32;6.47;;;3.63;;
74974;SDS011;68459;50.836;19.138;2023-07-13T05:58:36;4.75;;;3.60;;
74974;SDS011;68459;50.836;19.138;2023-07-13T06:01:42;5.35;;;3.40;;
74974;SDS011;68459;50.836;19.138;2023-07-13T06:04:46;8.63;;;3.60;;
74974;SDS011;68459;50.836;19.138;2023-07-13T06:07:53;4.85;;;3.22;;
74974;SDS011;68459;50.836;19.138;2023-07-13T06:11:01;5.97;;;3.60;;
74974;SDS011;68459;50.836;19.138;2023-07-13T06:14:06;6.55;;;3.78;;
74974;SDS011;68459;50.836;19.138;2023-07-13T06:17:12;9.13;;;3.60;;
74974;SDS011;68459;50.836;19.138;2023-07-13T06:20:16;5.53;;;3.25;;
74974;SDS011;68459;50.836;19.138;2023-07-13T06:23:20;4.93;;;3.33;;
74974;SDS011;68459;50.836;19.138;2023-07-13T06:26:24;4.80;;;3.60;;
74974;SDS011;68459;50.836;19.138;2023-07-13T06:29:28;6.47;;;3.58;;
74974;SDS011;68459;50.836;19.138;2023-07-13T06:32:33;6.05;;;2.88;;
74974;SDS011;68459;50.836;19.138;2023-07-13T06:35:40;4.50;;;3.35;;
74974;SDS011;68459;50.836;19.138;2023-07-13T06:38:44;5.20;;;3.30;;
74974;SDS011;68459;50.836;19.138;2023-07-13T06:41:48;4.93;;;3.50;;
74974;SDS011;68459;50.836;19.138;2023-07-13T06:44:52;4.95;;;3.22;;
74974;SDS011;68459;50.836;19.138;2023-07-13T06:47:57;4.88;;;3.53;;
74974;SDS011;68459;50.836;19.138;2023-07-13T06:51:02;4.90;;;3.58;;
74974;SDS011;68459;50.836;19.138;2023-07-13T06:54:07;7.43;;;3.70;;
74974;SDS011;68459;50.836;19.138;2023-07-13T06:57:11;6.40;;;4.40;;
74974;SDS011;68459;50.836;19.138;2023-07-13T07:00:16;5.13;;;3.80;;
74974;SDS011;68459;50.836;19.138;2023-07-13T07:03:21;5.95;;;3.90;;
74974;SDS011;68459;50.836;19.138;2023-07-13T07:06:26;10.65;;;3.70;;
74974;SDS011;68459;50.836;19.138;2023-07-13T07:09:30;5.00;;;3.78;;
74974;SDS011;68459;50.836;19.138;2023-07-13T07:12:33;5.10;;;3.70;;
74974;SDS011;68459;50.836;19.138;2023-07-13T07:15:37;5.57;;;3.50;;
74974;SDS011;68459;50.836;19.138;2023-07-13T07:18:43;4.50;;;3.47;;
74974;SDS011;68459;50.836;19.138;2023-07-13T07:21:47;6.88;;;3.88;;
74974;SDS011;68459;50.836;19.138;2023-07-13T07:24:51;4.45;;;3.58;;
74974;SDS011;68459;50.836;19.138;2023-07-13T07:27:54;8.43;;;6.20;;
74974;SDS011;68459;50.836;19.138;2023-07-13T07:31:01;6.13;;;4.07;;
74974;SDS011;68459;50.836;19.138;2023-07-13T07:34:10;5.40;;;3.70;;
74974;SDS011;68459;50.836;19.138;2023-07-13T07:37:14;7.18;;;4.30;;
74974;SDS011;68459;50.836;19.138;2023-07-13T07:40:21;5.88;;;3.72;;
74974;SDS011;68459;50.836;19.138;2023-07-13T07:43:28;5.30;;;3.70;;
74974;SDS011;68459;50.836;19.138;2023-07-13T07:46:32;5.90;;;3.45;;
74974;SDS011;68459;50.836;19.138;2023-07-13T07:49:37;7.47;;;3.92;;
74974;SDS011;68459;50.836;19.138;2023-07-13T07:52:41;7.25;;;3.58;;
74974;SDS011;68459;50.836;19.138;2023-07-13T07:55:46;8.38;;;3.55;;
74974;SDS011;68459;50.836;19.138;2023-07-13T07:58:53;6.77;;;3.30;;
74974;SDS011;68459;50.836;19.138;2023-07-13T08:02:00;9.65;;;4.88;;
74974;SDS011;68459;50.836;19.138;2023-07-13T08:05:09;5.47;;;3.65;;
74974;SDS011;68459;50.836;19.138;2023-07-13T08:08:17;6.25;;;4.47;;
74974;SDS011;68459;50.836;19.138;2023-07-13T08:11:21;8.35;;;3.10;;
74974;SDS011;68459;50.836;19.138;2023-07-13T08:14:28;4.83;;;3.13;;
74974;SDS011;68459;50.836;19.138;2023-07-13T08:17:52;5.20;;;3.08;;
74974;SDS011;68459;50.836;19.138;2023-07-13T08:20:59;4.28;;;2.75;;
74974;SDS011;68459;50.836;19.138;2023-07-13T08:24:07;6.72;;;2.85;;
74974;SDS011;68459;50.836;19.138;2023-07-13T08:27:11;7.38;;;2.50;;
74974;SDS011;68459;50.836;19.138;2023-07-13T08:30:15;6.87;;;3.43;;
74974;SDS011;68459;50.836;19.138;2023-07-13T08:33:19;7.28;;;4.00;;
74974;SDS011;68459;50.836;19.138;2023-07-13T08:36:28;4.32;;;2.60;;
74974;SDS011;68459;50.836;19.138;2023-07-13T08:39:33;10.35;;;6.25;;
74974;SDS011;68459;50.836;19.138;2023-07-13T08:42:37;3.75;;;2.20;;
74974;SDS011;68459;50.836;19.138;2023-07-13T08:45:46;3.47;;;2.00;;
74974;SDS011;68459;50.836;19.138;2023-07-13T08:48:52;3.35;;;2.13;;
74974;SDS011;68459;50.836;19.138;2023-07-13T08:52:02;4.22;;;2.00;;
74974;SDS011;68459;50.836;19.138;2023-07-13T08:55:12;3.38;;;1.60;;
74974;SDS011;68459;50.836;19.138;2023-07-13T08:58:19;2.90;;;1.60;;
74974;SDS011;68459;50.836;19.138;2023-07-13T09:01:24;3.13;;;1.70;;
74974;SDS011;68459;50.836;19.138;2023-07-13T09:04:39;10.20;;;1.55;;
74974;SDS011;68459;50.836;19.138;2023-07-13T09:07:55;2.83;;;1.35;;
74974;SDS011;68459;50.836;19.138;2023-07-13T09:11:14;2.97;;;1.40;;
74974;SDS011;68459;50.836;19.138;2023-07-13T09:14:33;3.13;;;1.30;;
74974;SDS011;68459;50.836;19.138;2023-07-13T09:17:45;4.10;;;1.30;;
74974;SDS011;68459;50.836;19.138;2023-07-13T09:20:54;4.10;;;1.23;;
74974;SDS011;68459;50.836;19.138;2023-07-13T09:24:21;2.88;;;1.10;;
74974;SDS011;68459;50.836;19.138;2023-07-13T09:27:34;3.10;;;1.20;;
74974;SDS011;68459;50.836;19.138;2023-07-13T09:30:45;2.20;;;1.08;;
74974;SDS011;68459;50.836;19.138;2023-07-13T09:33:55;2.53;;;1.10;;
74974;SDS011;68459;50.836;19.138;2023-07-13T09:37:00;3.50;;;1.20;;
74974;SDS011;68459;50.836;19.138;2023-07-13T09:40:07;1.95;;;1.10;;
74974;SDS011;68459;50.836;19.138;2023-07-13T09:43:20;4.22;;;1.33;;
74974;SDS011;68459;50.836;19.138;2023-07-13T09:46:24;5.00;;;1.40;;
74974;SDS011;68459;50.836;19.138;2023-07-13T09:49:29;3.70;;;1.30;;
74974;SDS011;68459;50.836;19.138;2023-07-13T09:52:40;2.83;;;1.27;;
74974;SDS011;68459;50.836;19.138;2023-07-13T09:55:47;3.72;;;1.15;;
74974;SDS011;68459;50.836;19.138;2023-07-13T09:58:55;3.45;;;1.15;;
74974;SDS011;68459;50.836;19.138;2023-07-13T10:02:00;4.68;;;1.42;;
74974;SDS011;68459;50.836;19.138;2023-07-13T10:05:06;3.73;;;1.40;;
74974;SDS011;68459;50.836;19.138;2023-07-13T10:08:23;5.78;;;1.50;;
74974;SDS011;68459;50.836;19.138;2023-07-13T10:11:36;6.78;;;1.90;;
74974;SDS011;68459;50.836;19.138;2023-07-13T10:14:43;5.20;;;1.60;;
74974;SDS011;68459;50.836;19.138;2023-07-13T10:17:49;6.90;;;1.80;;
74974;SDS011;68459;50.836;19.138;2023-07-13T10:20:54;3.58;;;1.15;;
74974;SDS011;68459;50.836;19.138;2023-07-13T10:24:35;3.53;;;1.15;;
74974;SDS011;68459;50.836;19.138;2023-07-13T10:27:42;3.42;;;1.10;;
74974;SDS011;68459;50.836;19.138;2023-07-13T10:30:47;2.50;;;1.08;;
74974;SDS011;68459;50.836;19.138;2023-07-13T10:33:52;2.10;;;0.93;;
74974;SDS011;68459;50.836;19.138;2023-07-13T10:36:56;4.10;;;1.67;;
74974;SDS011;68459;50.836;19.138;2023-07-13T10:40:01;3.15;;;1.30;;
74974;SDS011;68459;50.836;19.138;2023-07-13T10:43:18;4.18;;;1.20;;
74974;SDS011;68459;50.836;19.138;2023-07-13T10:46:29;1.98;;;0.80;;
74974;SDS011;68459;50.836;19.138;2023-07-13T10:49:34;3.00;;;1.00;;
74974;SDS011;68459;50.836;19.138;2023-07-13T10:52:43;2.13;;;1.00;;
74974;SDS011;68459;50.836;19.138;2023-07-13T10:55:58;2.60;;;1.10;;
74974;SDS011;68459;50.836;19.138;2023-07-13T10:59:12;3.55;;;1.80;;
74974;SDS011;68459;50.836;19.138;2023-07-13T11:02:25;4.25;;;1.20;;
74974;SDS011;68459;50.836;19.138;2023-07-13T11:05:32;2.77;;;1.20;;
74974;SDS011;68459;50.836;19.138;2023-07-13T11:08:37;3.55;;;0.98;;
74974;SDS011;68459;50.836;19.138;2023-07-13T11:11:56;5.47;;;1.50;;
74974;SDS011;68459;50.836;19.138;2023-07-13T11:15:05;2.85;;;1.30;;
74974;SDS011;68459;50.836;19.138;2023-07-13T11:18:21;5.35;;;1.40;;
74974;SDS011;68459;50.836;19.138;2023-07-13T11:21:27;4.03;;;1.47;;
74974;SDS011;68459;50.836;19.138;2023-07-13T11:24:47;3.67;;;1.15;;
74974;SDS011;68459;50.836;19.138;2023-07-13T11:31:30;5.38;;;1.45;;
74974;SDS011;68459;50.836;19.138;2023-07-13T11:34:38;5.10;;;1.67;;
74974;SDS011;68459;50.836;19.138;2023-07-13T11:37:42;3.10;;;1.40;;
74974;SDS011;68459;50.836;19.138;2023-07-13T11:40:51;4.80;;;1.50;;
74974;SDS011;68459;50.836;19.138;2023-07-13T11:44:02;4.93;;;1.85;;
74974;SDS011;68459;50.836;19.138;2023-07-13T11:47:17;3.78;;;2.10;;
74974;SDS011;68459;50.836;19.138;2023-07-13T11:50:24;3.47;;;1.92;;
74974;SDS011;68459;50.836;19.138;2023-07-13T11:53:29;3.33;;;1.53;;
74974;SDS011;68459;50.836;19.138;2023-07-13T11:56:42;3.83;;;1.52;;
74974;SDS011;68459;50.836;19.138;2023-07-13T11:59:48;4.97;;;1.30;;
74974;SDS011;68459;50.836;19.138;2023-07-13T12:02:57;2.88;;;1.10;;
74974;SDS011;68459;50.836;19.138;2023-07-13T12:06:06;3.28;;;1.10;;
74974;SDS011;68459;50.836;19.138;2023-07-13T12:09:30;3.00;;;1.50;;
74974;SDS011;68459;50.836;19.138;2023-07-13T12:12:40;2.60;;;1.30;;
74974;SDS011;68459;50.836;19.138;2023-07-13T12:15:51;4.28;;;1.42;;
74974;SDS011;68459;50.836;19.138;2023-07-13T12:18:57;2.33;;;1.30;;
74974;SDS011;68459;50.836;19.138;2023-07-13T12:22:02;3.70;;;1.65;;
74974;SDS011;68459;50.836;19.138;2023-07-13T12:25:08;4.90;;;1.50;;
74974;SDS011;68459;50.836;19.138;2023-07-13T12:28:21;5.28;;;2.08;;
74974;SDS011;68459;50.836;19.138;2023-07-13T12:31:33;3.50;;;1.60;;
74974;SDS011;68459;50.836;19.138;2023-07-13T12:34:51;6.60;;;1.95;;
74974;SDS011;68459;50.836;19.138;2023-07-13T12:37:57;2.60;;;1.35;;
74974;SDS011;68459;50.836;19.138;2023-07-13T12:41:03;3.70;;;1.87;;
74974;SDS011;68459;50.836;19.138;2023-07-13T12:44:09;2.90;;;1.67;;
74974;SDS011;68459;50.836;19.138;2023-07-13T12:47:15;3.90;;;1.60;;
74974;SDS011;68459;50.836;19.138;2023-07-13T12:50:23;3.53;;;1.70;;
74974;SDS011;68459;50.836;19.138;2023-07-13T12:53:34;4.25;;;1.70;;
74974;SDS011;68459;50.836;19.138;2023-07-13T12:56:43;2.83;;;1.73;;
74974;SDS011;68459;50.836;19.138;2023-07-13T12:59:51;4.18;;;2.13;;
74974;SDS011;68459;50.836;19.138;2023-07-13T13:02:56;3.72;;;2.05;;
74974;SDS011;68459;50.836;19.138;2023-07-13T13:06:25;4.57;;;1.80;;
74974;SDS011;68459;50.836;19.138;2023-07-13T13:09:31;3.90;;;1.75;;
74974;SDS011;68459;50.836;19.138;2023-07-13T13:12:35;3.87;;;1.77;;
74974;SDS011;68459;50.836;19.138;2023-07-13T13:15:39;3.80;;;1.63;;
74974;SDS011;68459;50.836;19.138;2023-07-13T13:18:43;3.38;;;1.98;;
74974;SDS011;68459;50.836;19.138;2023-07-13T13:21:48;3.13;;;1.58;;
74974;SDS011;68459;50.836;19.138;2023-07-13T13:24:54;2.70;;;1.60;;
74974;SDS011;68459;50.836;19.138;2023-07-13T13:27:58;3.57;;;1.77;;
74974;SDS011;68459;50.836;19.138;2023-07-13T13:31:02;5.72;;;2.22;;
74974;SDS011;68459;50.836;19.138;2023-07-13T13:34:07;3.50;;;1.83;;
74974;SDS011;68459;50.836;19.138;2023-07-13T13:37:17;5.30;;;1.90;;
74974;SDS011;68459;50.836;19.138;2023-07-13T13:40:23;3.42;;;2.00;;
74974;SDS011;68459;50.836;19.138;2023-07-13T13:43:28;4.23;;;2.30;;
74974;SDS011;68459;50.836;19.138;2023-07-13T13:46:32;3.05;;;1.70;;
74974;SDS011;68459;50.836;19.138;2023-07-13T13:49:36;4.22;;;1.80;;
74974;SDS011;68459;50.836;19.138;2023-07-13T13:52:41;3.55;;;1.90;;
74974;SDS011;68459;50.836;19.138;2023-07-13T13:55:45;3.63;;;1.70;;
74974;SDS011;68459;50.836;19.138;2023-07-13T13:58:49;4.13;;;2.07;;
74974;SDS011;68459;50.836;19.138;2023-07-13T14:01:53;4.05;;;2.38;;
74974;SDS011;68459;50.836;19.138;2023-07-13T14:04:58;3.22;;;2.10;;
74974;SDS011;68459;50.836;19.138;2023-07-13T14:08:08;3.42;;;1.65;;
74974;SDS011;68459;50.836;19.138;2023-07-13T14:11:17;2.38;;;1.55;;
74974;SDS011;68459;50.836;19.138;2023-07-13T14:14:23;3.13;;;1.90;;
74974;SDS011;68459;50.836;19.138;2023-07-13T14:17:29;3.43;;;1.37;;
74974;SDS011;68459;50.836;19.138;2023-07-13T14:20:33;2.33;;;1.30;;
74974;SDS011;68459;50.836;19.138;2023-07-13T14:23:39;4.50;;;1.90;;
74974;SDS011;68459;50.836;19.138;2023-07-13T14:26:43;2.33;;;1.45;;
74974;SDS011;68459;50.836;19.138;2023-07-13T14:29:49;4.10;;;1.40;;
74974;SDS011;68459;50.836;19.138;2023-07-13T14:32:53;3.63;;;1.57;;
74974;SDS011;68459;50.836;19.138;2023-07-13T14:35:56;5.00;;;2.78;;
74974;SDS011;68459;50.836;19.138;2023-07-13T14:39:09;2.90;;;1.38;;
74974;SDS011;68459;50.836;19.138;2023-07-13T14:42:16;3.88;;;1.30;;
74974;SDS011;68459;50.836;19.138;2023-07-13T14:45:20;2.73;;;1.40;;
74974;SDS011;68459;50.836;19.138;2023-07-13T14:48:24;2.33;;;1.37;;
74974;SDS011;68459;50.836;19.138;2023-07-13T14:51:28;3.17;;;1.10;;
74974;SDS011;68459;50.836;19.138;2023-07-13T14:54:34;4.22;;;1.60;;
74974;SDS011;68459;50.836;19.138;2023-07-13T14:57:43;2.45;;;1.42;;
74974;SDS011;68459;50.836;19.138;2023-07-13T15:00:47;2.70;;;1.33;;
74974;SDS011;68459;50.836;19.138;2023-07-13T15:03:52;3.07;;;1.30;;
74974;SDS011;68459;50.836;19.138;2023-07-13T15:06:57;2.15;;;1.30;;
74974;SDS011;68459;50.836;19.138;2023-07-13T15:10:08;3.47;;;1.42;;
74974;SDS011;68459;50.836;19.138;2023-07-13T15:13:18;2.72;;;1.30;;
74974;SDS011;68459;50.836;19.138;2023-07-13T15:16:25;2.53;;;1.33;;
74974;SDS011;68459;50.836;19.138;2023-07-13T15:19:30;5.13;;;1.73;;
74974;SDS011;68459;50.836;19.138;2023-07-13T15:22:34;5.65;;;4.28;;
74974;SDS011;68459;50.836;19.138;2023-07-13T15:25:40;2.85;;;1.33;;
74974;SDS011;68459;50.836;19.138;2023-07-13T15:28:46;4.05;;;1.77;;
74974;SDS011;68459;50.836;19.138;2023-07-13T15:31:50;2.23;;;1.30;;
74974;SDS011;68459;50.836;19.138;2023-07-13T15:34:54;3.67;;;1.33;;
74974;SDS011;68459;50.836;19.138;2023-07-13T15:37:58;5.10;;;1.42;;
74974;SDS011;68459;50.836;19.138;2023-07-13T15:41:08;3.80;;;1.20;;
74974;SDS011;68459;50.836;19.138;2023-07-13T15:44:22;3.05;;;1.10;;
74974;SDS011;68459;50.836;19.138;2023-07-13T15:47:30;2.03;;;1.10;;
74974;SDS011;68459;50.836;19.138;2023-07-13T15:50:39;2.93;;;1.50;;
74974;SDS011;68459;50.836;19.138;2023-07-13T15:53:47;2.17;;;1.08;;
74974;SDS011;68459;50.836;19.138;2023-07-13T15:56:54;2.40;;;1.20;;
74974;SDS011;68459;50.836;19.138;2023-07-13T16:00:00;2.35;;;1.10;;
74974;SDS011;68459;50.836;19.138;2023-07-13T16:03:14;4.20;;;0.90;;
74974;SDS011;68459;50.836;19.138;2023-07-13T16:06:19;2.43;;;1.20;;
74974;SDS011;68459;50.836;19.138;2023-07-13T16:09:29;1.98;;;1.10;;
74974;SDS011;68459;50.836;19.138;2023-07-13T16:12:34;2.45;;;1.48;;
74974;SDS011;68459;50.836;19.138;2023-07-13T16:15:41;2.15;;;1.00;;
74974;SDS011;68459;50.836;19.138;2023-07-13T16:18:46;3.07;;;0.93;;
74974;SDS011;68459;50.836;19.138;2023-07-13T16:21:50;1.60;;;0.73;;
74974;SDS011;68459;50.836;19.138;2023-07-13T16:24:54;1.52;;;0.75;;
74974;SDS011;68459;50.836;19.138;2023-07-13T16:28:00;2.10;;;1.00;;
74974;SDS011;68459;50.836;19.138;2023-07-13T16:31:04;1.55;;;0.80;;
74974;SDS011;68459;50.836;19.138;2023-07-13T16:34:10;2.20;;;1.00;;
74974;SDS011;68459;50.836;19.138;2023-07-13T16:37:15;2.43;;;1.10;;
74974;SDS011;68459;50.836;19.138;2023-07-13T16:40:22;2.15;;;0.90;;
74974;SDS011;68459;50.836;19.138;2023-07-13T16:43:29;2.75;;;0.95;;
74974;SDS011;68459;50.836;19.138;2023-07-13T16:46:33;2.60;;;1.05;;
74974;SDS011;68459;50.836;19.138;2023-07-13T16:49:38;2.07;;;0.80;;
74974;SDS011;68459;50.836;19.138;2023-07-13T16:52:41;1.60;;;0.90;;
74974;SDS011;68459;50.836;19.138;2023-07-13T16:55:46;1.73;;;0.90;;
74974;SDS011;68459;50.836;19.138;2023-07-13T16:58:51;2.25;;;1.02;;
74974;SDS011;68459;50.836;19.138;2023-07-13T17:01:56;1.75;;;0.90;;
74974;SDS011;68459;50.836;19.138;2023-07-13T17:05:01;1.90;;;1.10;;
74974;SDS011;68459;50.836;19.138;2023-07-13T17:08:10;2.37;;;1.07;;
74974;SDS011;68459;50.836;19.138;2023-07-13T17:11:17;4.53;;;1.10;;
74974;SDS011;68459;50.836;19.138;2023-07-13T17:14:22;2.78;;;1.00;;
74974;SDS011;68459;50.836;19.138;2023-07-13T17:17:30;1.80;;;1.00;;
74974;SDS011;68459;50.836;19.138;2023-07-13T17:20:39;1.93;;;0.93;;
74974;SDS011;68459;50.836;19.138;2023-07-13T17:23:47;2.57;;;0.80;;
74974;SDS011;68459;50.836;19.138;2023-07-13T17:26:54;2.55;;;1.10;;
74974;SDS011;68459;50.836;19.138;2023-07-13T17:30:01;2.25;;;1.00;;
74974;SDS011;68459;50.836;19.138;2023-07-13T17:33:05;4.82;;;1.10;;
74974;SDS011;68459;50.836;19.138;2023-07-13T17:36:11;2.50;;;1.40;;
74974;SDS011;68459;50.836;19.138;2023-07-13T17:39:19;2.20;;;1.00;;
74974;SDS011;68459;50.836;19.138;2023-07-13T17:42:27;2.45;;;1.13;;
74974;SDS011;68459;50.836;19.138;2023-07-13T17:45:32;2.38;;;1.00;;
74974;SDS011;68459;50.836;19.138;2023-07-13T17:48:39;4.45;;;1.20;;
74974;SDS011;68459;50.836;19.138;2023-07-13T17:51:44;3.50;;;1.33;;
74974;SDS011;68459;50.836;19.138;2023-07-13T17:54:50;2.03;;;0.80;;
74974;SDS011;68459;50.836;19.138;2023-07-13T17:57:54;2.20;;;1.10;;
74974;SDS011;68459;50.836;19.138;2023-07-13T18:00:59;3.92;;;1.55;;
74974;SDS011;68459;50.836;19.138;2023-07-13T18:04:06;3.05;;;1.15;;
74974;SDS011;68459;50.836;19.138;2023-07-13T18:07:12;2.73;;;1.20;;
74974;SDS011;68459;50.836;19.138;2023-07-13T18:10:20;1.90;;;1.10;;
74974;SDS011;68459;50.836;19.138;2023-07-13T18:13:25;3.22;;;1.30;;
74974;SDS011;68459;50.836;19.138;2023-07-13T18:16:32;4.60;;;1.38;;
74974;SDS011;68459;50.836;19.138;2023-07-13T18:19:38;3.13;;;1.30;;
74974;SDS011;68459;50.836;19.138;2023-07-13T18:22:45;2.40;;;1.50;;
74974;SDS011;68459;50.836;19.138;2023-07-13T18:25:50;4.23;;;1.53;;
74974;SDS011;68459;50.836;19.138;2023-07-13T18:28:55;6.05;;;1.88;;
74974;SDS011;68459;50.836;19.138;2023-07-13T18:32:00;2.63;;;1.60;;